createdAt,value
2024-03-07T00:00:24.602Z,1.92
2024-03-07T00:03:12.834Z,1.67
2024-03-07T00:05:41.425Z,2.20
2024-03-07T00:08:11.414Z,1.92
2024-03-07T00:10:40.038Z,2.30
2024-03-07T00:13:09.464Z,2.30
2024-03-07T00:15:38.198Z,2.20
2024-03-07T00:18:07.311Z,2.50
2024-03-07T00:20:36.771Z,2.95
2024-03-07T00:23:05.502Z,3.08
2024-03-07T00:25:34.547Z,2.10
2024-03-07T00:28:05.797Z,3.60
2024-03-07T00:30:35.511Z,3.67
2024-03-07T00:33:04.178Z,3.17
2024-03-07T00:35:33.022Z,3.17
2024-03-07T00:38:01.418Z,3.53
2024-03-07T00:40:30.546Z,3.60
2024-03-07T00:43:00.726Z,3.63
2024-03-07T00:45:29.749Z,3.20
2024-03-07T00:47:58.260Z,3.70
2024-03-07T00:50:26.977Z,3.00
2024-03-07T00:52:55.423Z,3.25
2024-03-07T00:55:24.596Z,3.60
2024-03-07T00:57:52.871Z,3.45
2024-03-07T01:00:23.186Z,3.47
2024-03-07T01:02:54.661Z,3.70
2024-03-07T01:05:23.509Z,2.97
2024-03-07T01:07:51.915Z,4.32
2024-03-07T01:10:20.697Z,3.20
2024-03-07T01:12:51.352Z,2.78
2024-03-07T01:15:20.184Z,2.70
2024-03-07T01:17:48.738Z,2.78
2024-03-07T01:20:17.621Z,2.72
2024-03-07T01:22:46.279Z,3.53
2024-03-07T01:25:14.986Z,2.65
2024-03-07T01:27:43.398Z,2.90
2024-03-07T01:30:12.811Z,3.72
2024-03-07T01:32:41.197Z,2.67
2024-03-07T01:35:11.579Z,2.70
2024-03-07T01:37:39.812Z,3.10
2024-03-07T01:40:09.639Z,2.72
2024-03-07T01:42:37.847Z,2.70
2024-03-07T01:45:06.824Z,2.90
2024-03-07T01:47:35.187Z,3.60
2024-03-07T01:50:05.149Z,2.97
2024-03-07T01:52:33.732Z,3.10
2024-03-07T01:55:04.340Z,3.03
2024-03-07T01:57:33.197Z,2.58
2024-03-07T02:00:07.702Z,2.80
2024-03-07T02:02:36.944Z,2.80
2024-03-07T02:05:05.992Z,2.75
2024-03-07T02:07:34.624Z,2.80
2024-03-07T02:10:07.282Z,3.17
2024-03-07T02:12:35.481Z,2.80
2024-03-07T02:15:04.314Z,2.85
2024-03-07T02:17:33.587Z,3.33
2024-03-07T02:20:02.227Z,3.25
2024-03-07T02:22:30.378Z,3.08
2024-03-07T02:24:59.114Z,3.53
2024-03-07T02:27:27.246Z,3.20
2024-03-07T02:29:55.976Z,3.22
2024-03-07T02:32:24.772Z,3.40
2024-03-07T02:34:54.077Z,2.78
2024-03-07T02:37:22.249Z,3.30
2024-03-07T02:39:51.109Z,3.38
2024-03-07T02:42:19.429Z,2.63
2024-03-07T02:44:48.501Z,2.60
2024-03-07T02:47:17.066Z,2.40
2024-03-07T02:49:45.947Z,3.53
2024-03-07T02:52:14.073Z,3.38
2024-03-07T02:54:42.713Z,3.15
2024-03-07T02:57:12.934Z,3.28
2024-03-07T02:59:41.650Z,3.70
2024-03-07T03:02:09.800Z,3.58
2024-03-07T03:04:38.555Z,4.47
2024-03-07T03:07:08.485Z,4.50
2024-03-07T03:09:41.436Z,3.92
2024-03-07T03:12:10.240Z,3.78
2024-03-07T03:14:39.085Z,5.03
2024-03-07T03:17:10.352Z,4.13
2024-03-07T03:19:39.054Z,4.00
2024-03-07T03:22:10.409Z,4.20
2024-03-07T03:24:42.687Z,4.00
2024-03-07T03:27:12.284Z,4.72
2024-03-07T03:29:42.350Z,4.70
2024-03-07T03:32:10.534Z,4.72
2024-03-07T03:34:39.194Z,4.95
2024-03-07T03:37:07.500Z,5.22
2024-03-07T03:39:36.521Z,4.22
2024-03-07T03:42:04.933Z,4.22
2024-03-07T03:44:33.399Z,5.15
2024-03-07T03:47:05.351Z,4.22
2024-03-07T03:49:33.927Z,4.10
2024-03-07T03:52:02.351Z,3.90
2024-03-07T03:54:31.205Z,4.15
2024-03-07T03:57:00.404Z,4.63
2024-03-07T03:59:29.217Z,4.20
2024-03-07T04:01:57.352Z,3.72
2024-03-07T04:04:27.444Z,3.72
2024-03-07T04:06:55.707Z,3.30
2024-03-07T04:09:24.873Z,3.65
2024-03-07T04:11:53.219Z,4.70
2024-03-07T04:14:21.798Z,3.58
2024-03-07T04:16:50.111Z,3.60
2024-03-07T06:38:28.893Z,5.10
2024-03-07T06:40:57.001Z,5.43
2024-03-07T06:43:25.950Z,4.88
2024-03-07T06:45:53.929Z,4.85
2024-03-07T06:48:22.746Z,4.75
2024-03-07T06:50:52.272Z,5.03
2024-03-07T06:53:21.745Z,4.93
2024-03-07T06:55:50.698Z,4.65
2024-03-07T06:58:19.140Z,4.05
2024-03-07T07:00:47.298Z,5.18
2024-03-07T07:03:15.799Z,4.80
2024-03-07T07:05:44.025Z,5.05
2024-03-07T07:08:15.100Z,4.85
2024-03-07T07:10:44.290Z,6.40
2024-03-07T07:13:14.540Z,5.20
2024-03-07T07:15:42.673Z,4.93
2024-03-07T07:18:12.114Z,4.53
2024-03-07T07:20:40.488Z,4.65
2024-03-07T07:23:09.137Z,5.00
2024-03-07T07:25:37.352Z,4.05
2024-03-07T07:28:06.430Z,4.93
2024-03-07T07:30:34.937Z,4.15
2024-03-07T07:33:03.644Z,4.43
2024-03-07T07:35:32.623Z,4.00
2024-03-07T07:38:01.129Z,3.67
2024-03-07T07:40:29.642Z,3.75
2024-03-07T07:42:58.204Z,3.63
2024-03-07T07:45:26.516Z,3.45
2024-03-07T07:47:55.880Z,3.47
2024-03-07T07:50:25.682Z,4.28
2024-03-07T07:52:56.530Z,4.88
2024-03-07T07:55:26.909Z,4.22
2024-03-07T07:57:58.165Z,3.97
2024-03-07T08:00:30.790Z,4.13
2024-03-07T08:03:05.266Z,3.92
2024-03-07T08:08:08.396Z,3.08
2024-03-07T08:10:38.022Z,3.10
2024-03-07T08:13:12.040Z,3.88
2024-03-07T08:15:40.824Z,3.47
2024-03-07T08:18:12.777Z,3.38
2024-03-07T08:20:42.782Z,3.05
2024-03-07T08:23:11.980Z,3.33
2024-03-07T08:25:42.206Z,4.28
2024-03-07T08:28:10.802Z,3.65
2024-03-07T08:30:39.330Z,3.97
2024-03-07T08:33:09.342Z,3.92
2024-03-07T08:35:37.983Z,3.97
2024-03-07T08:38:06.585Z,4.90
2024-03-07T08:40:35.735Z,4.95
2024-03-07T08:43:05.157Z,5.07
2024-03-07T08:45:35.811Z,4.15
2024-03-07T08:48:06.272Z,4.50
2024-03-07T08:50:36.050Z,5.18
2024-03-07T08:53:08.834Z,4.88
2024-03-07T08:55:38.145Z,5.25
2024-03-07T08:58:10.258Z,5.95
2024-03-07T09:00:40.078Z,5.57
2024-03-07T09:03:12.391Z,5.47
2024-03-07T09:05:42.567Z,5.95
2024-03-07T09:08:11.310Z,5.50
2024-03-07T09:10:45.134Z,6.85
2024-03-07T09:13:14.004Z,6.53
2024-03-07T09:15:42.211Z,6.47
2024-03-07T09:18:10.936Z,6.15
2024-03-07T09:20:39.494Z,5.97
2024-03-07T09:23:08.557Z,5.65
2024-03-07T09:25:37.778Z,5.47
2024-03-07T09:28:07.969Z,5.78
2024-03-07T09:30:40.300Z,5.40
2024-03-07T09:33:12.594Z,5.57
2024-03-07T09:35:41.528Z,4.20
2024-03-07T09:38:10.160Z,4.40
2024-03-07T09:40:39.048Z,4.28
2024-03-07T09:43:11.383Z,4.70
2024-03-07T09:45:41.548Z,4.28
2024-03-07T09:48:10.798Z,4.10
2024-03-07T09:50:39.964Z,4.38
2024-03-07T09:53:10.220Z,4.20
2024-03-07T09:55:39.019Z,4.68
2024-03-07T09:58:10.712Z,4.05
2024-03-07T10:00:39.778Z,4.60
2024-03-07T10:03:10.887Z,3.85
2024-03-07T10:05:40.470Z,4.40
2024-03-07T10:08:09.413Z,4.55
2024-03-07T10:10:37.908Z,4.30
2024-03-07T10:13:07.187Z,4.88
2024-03-07T10:15:36.276Z,5.00
2024-03-07T10:18:09.830Z,3.38
2024-03-07T10:20:38.662Z,4.00
2024-03-07T10:23:09.347Z,5.30
2024-03-07T10:25:38.920Z,4.20
2024-03-07T10:28:10.216Z,5.45
2024-03-07T10:30:51.813Z,4.25
2024-03-07T10:33:21.586Z,4.57
2024-03-07T10:35:51.067Z,4.78
2024-03-07T10:38:20.714Z,4.65
2024-03-07T10:40:51.076Z,4.15
2024-03-07T10:43:21.951Z,5.57
2024-03-07T10:45:53.935Z,4.60
2024-03-07T10:48:29.720Z,5.28
2024-03-07T10:51:26.629Z,3.70
2024-03-07T10:54:09.474Z,3.63
2024-03-07T10:56:57.910Z,4.00
2024-03-07T10:59:34.870Z,4.82
2024-03-07T11:02:28.598Z,4.28
2024-03-07T11:04:57.778Z,3.08
2024-03-07T11:07:26.537Z,4.03
2024-03-07T11:09:56.992Z,3.90
2024-03-07T11:12:26.434Z,3.85
2024-03-07T11:14:58.022Z,3.22
2024-03-07T11:17:26.860Z,2.25
2024-03-07T11:19:55.325Z,2.90
2024-03-07T11:22:32.769Z,3.40
2024-03-07T11:25:08.808Z,3.00
2024-03-07T11:27:41.233Z,3.40
2024-03-07T11:30:11.813Z,2.80
2024-03-07T11:32:40.569Z,3.22
2024-03-07T11:35:15.857Z,3.80
2024-03-07T11:37:48.268Z,3.28
2024-03-07T11:40:26.217Z,3.13
2024-03-07T11:43:01.394Z,3.53
2024-03-07T11:45:31.584Z,4.20
2024-03-07T11:48:11.192Z,4.15
2024-03-07T11:50:41.814Z,3.25
2024-03-07T11:53:11.039Z,3.35
2024-03-07T11:55:47.516Z,3.45
2024-03-07T11:58:18.420Z,3.33
2024-03-07T12:00:47.762Z,3.17
2024-03-07T12:03:25.210Z,3.13
2024-03-07T12:05:54.338Z,3.10
2024-03-07T12:08:25.553Z,3.17
2024-03-07T12:10:58.972Z,3.22
2024-03-07T12:16:00.243Z,2.80
2024-03-07T12:18:31.118Z,4.03
2024-03-07T12:21:00.563Z,4.55
2024-03-07T12:23:29.503Z,3.25
2024-03-07T12:26:05.022Z,3.47
2024-03-07T12:28:40.196Z,3.72
2024-03-07T12:31:17.586Z,2.72
2024-03-07T12:33:53.459Z,3.15
2024-03-07T12:36:24.469Z,3.00
2024-03-07T12:38:57.174Z,3.15
2024-03-07T12:41:25.578Z,3.25
2024-03-07T12:43:55.228Z,2.97
2024-03-07T12:46:23.468Z,3.83
2024-03-07T12:48:52.265Z,2.78
2024-03-07T12:51:21.408Z,3.13
2024-03-07T12:53:54.067Z,2.85
2024-03-07T12:56:22.222Z,3.13
2024-03-07T12:58:51.917Z,3.20
2024-03-07T13:01:21.382Z,2.85
2024-03-07T13:03:51.225Z,2.90
2024-03-07T13:06:27.553Z,3.13
2024-03-07T13:08:59.687Z,3.30
2024-03-07T13:11:31.893Z,3.92
2024-03-07T13:14:01.252Z,3.28
2024-03-07T13:16:32.570Z,3.03
2024-03-07T13:19:02.596Z,3.63
2024-03-07T13:21:32.112Z,3.33
2024-03-07T13:24:02.226Z,3.17
2024-03-07T13:26:33.192Z,2.75
2024-03-07T13:29:03.057Z,3.63
2024-03-07T13:31:31.224Z,3.88
2024-03-07T13:34:03.505Z,3.92
2024-03-07T13:36:31.844Z,3.10
2024-03-07T13:39:00.697Z,3.13
2024-03-07T13:41:30.113Z,4.28
2024-03-07T13:44:01.434Z,5.55
2024-03-07T13:46:30.263Z,3.28
2024-03-07T13:49:08.674Z,2.67
2024-03-07T13:51:37.197Z,3.35
2024-03-07T13:54:29.463Z,2.90
2024-03-07T13:57:21.529Z,3.25
2024-03-07T14:00:18.013Z,3.25
2024-03-07T14:03:03.669Z,3.60
2024-03-07T14:05:46.616Z,3.03
2024-03-07T14:08:43.246Z,2.88
2024-03-07T14:11:36.792Z,3.20
2024-03-07T14:14:44.947Z,3.30
2024-03-07T14:17:25.668Z,3.33
2024-03-07T14:20:20.700Z,4.65
2024-03-07T14:23:18.219Z,3.85
2024-03-07T14:26:24.318Z,3.13
2024-03-07T14:29:37.315Z,4.80
2024-03-07T14:32:06.177Z,4.85
2024-03-07T14:34:58.400Z,5.05
2024-03-07T14:37:33.110Z,3.75
2024-03-07T14:40:15.320Z,3.30
2024-03-07T14:42:46.604Z,3.40
2024-03-07T14:45:24.942Z,3.95
2024-03-07T14:47:56.475Z,4.50
2024-03-07T14:50:28.999Z,4.05
2024-03-07T14:52:57.912Z,4.07
2024-03-07T14:55:26.317Z,4.22
2024-03-07T14:57:54.408Z,4.03
2024-03-07T15:00:34.180Z,4.20
2024-03-07T15:03:08.004Z,3.97
2024-03-07T15:05:37.876Z,3.47
2024-03-07T15:08:06.253Z,4.50
2024-03-07T15:10:39.450Z,4.70
2024-03-07T15:13:09.640Z,4.25
2024-03-07T15:15:38.101Z,4.55
2024-03-07T15:18:06.466Z,4.28
2024-03-07T15:20:34.999Z,4.60
2024-03-07T15:23:10.007Z,4.18
2024-03-07T15:25:38.363Z,4.28
2024-03-07T15:28:06.560Z,4.35
2024-03-07T15:30:38.066Z,4.38
2024-03-07T15:33:06.887Z,4.18
2024-03-07T15:35:36.668Z,4.15
2024-03-07T15:38:05.844Z,3.92
2024-03-07T15:40:35.551Z,5.05
2024-03-07T15:43:04.884Z,4.57
2024-03-07T15:45:33.579Z,4.03
2024-03-07T15:48:12.241Z,3.70
2024-03-07T15:50:45.750Z,4.10
2024-03-07T15:53:15.000Z,3.58
2024-03-07T15:55:44.490Z,3.70
2024-03-07T15:58:12.800Z,3.70
2024-03-07T16:00:42.584Z,4.50
2024-03-07T16:03:13.828Z,3.90
2024-03-07T16:05:48.660Z,4.80
2024-03-07T16:08:20.507Z,4.65
2024-03-07T16:10:50.144Z,3.47
2024-03-07T16:13:18.594Z,3.50
2024-03-07T16:15:48.726Z,3.75
2024-03-07T16:18:17.654Z,3.97
2024-03-07T16:20:48.945Z,4.07
2024-03-07T16:23:18.269Z,5.05
2024-03-07T16:25:47.142Z,4.28
2024-03-07T16:28:17.491Z,4.30
2024-03-07T16:30:47.201Z,4.50
2024-03-07T16:33:19.261Z,4.30
2024-03-07T16:35:49.242Z,3.72
2024-03-07T16:38:17.683Z,3.83
2024-03-07T16:40:46.668Z,4.13
2024-03-07T16:43:14.893Z,3.85
2024-03-07T16:45:44.270Z,5.40
2024-03-07T16:48:13.305Z,6.35
2024-03-07T16:50:43.254Z,7.15
2024-03-07T16:53:12.945Z,7.28
2024-03-07T16:55:41.464Z,7.63
2024-03-07T16:58:17.766Z,6.88
2024-03-07T17:00:46.293Z,7.90
2024-03-07T17:03:16.873Z,7.45
2024-03-07T17:05:46.323Z,7.60
2024-03-07T17:08:17.715Z,8.15
2024-03-07T17:10:47.492Z,7.32
2024-03-07T17:13:17.189Z,7.85
2024-03-07T17:15:47.702Z,8.32
2024-03-07T17:18:17.024Z,8.10
2024-03-07T17:20:47.261Z,7.32
2024-03-07T17:23:17.108Z,7.75
2024-03-07T17:25:48.362Z,8.80
2024-03-07T17:28:18.234Z,8.07
2024-03-07T17:30:47.050Z,7.13
2024-03-07T17:33:17.252Z,8.68
2024-03-07T17:35:46.344Z,8.82
2024-03-07T17:38:15.932Z,8.70
2024-03-07T17:40:44.748Z,8.20
2024-03-07T17:43:12.965Z,8.35
2024-03-07T17:45:42.485Z,8.20
2024-03-07T17:48:12.209Z,7.93
2024-03-07T17:50:43.760Z,7.95
2024-03-07T17:53:15.301Z,7.82
2024-03-07T17:55:46.727Z,8.23
2024-03-07T17:58:15.890Z,8.35
2024-03-07T18:00:46.774Z,8.93
2024-03-07T18:03:18.187Z,9.00
2024-03-07T18:05:53.756Z,9.35
2024-03-07T18:08:34.841Z,8.65
2024-03-07T18:11:15.348Z,8.77
2024-03-07T18:13:45.391Z,9.23
2024-03-07T18:16:17.400Z,9.50
2024-03-07T18:18:51.261Z,8.50
2024-03-07T18:21:20.010Z,11.02
2024-03-07T18:23:48.249Z,9.75
2024-03-07T18:26:16.809Z,10.15
2024-03-07T18:28:45.747Z,9.77
2024-03-07T18:31:19.445Z,8.98
2024-03-07T18:33:47.914Z,9.23
2024-03-07T18:36:16.631Z,9.98
2024-03-07T18:38:46.856Z,9.48
2024-03-07T18:41:17.462Z,9.95
2024-03-07T18:43:45.619Z,9.05
2024-03-07T18:46:14.154Z,10.07
2024-03-07T18:48:43.922Z,9.55
2024-03-07T18:51:12.940Z,9.30
2024-03-07T18:53:41.315Z,9.35
2024-03-07T18:56:12.523Z,9.57
2024-03-07T18:58:40.989Z,10.75
2024-03-07T19:01:09.908Z,8.45
2024-03-07T19:03:38.280Z,9.90
2024-03-07T19:06:10.469Z,9.10
2024-03-07T19:08:38.909Z,9.52
2024-03-07T19:11:08.221Z,9.55
2024-03-07T19:13:37.616Z,9.65
2024-03-07T19:16:08.174Z,10.63
2024-03-07T19:18:36.369Z,10.07
2024-03-07T19:21:11.852Z,10.10
2024-03-07T19:23:47.021Z,10.32
2024-03-07T19:26:21.132Z,9.85
2024-03-07T19:28:49.897Z,10.60
2024-03-07T19:31:18.350Z,9.18
2024-03-07T19:33:46.843Z,9.05
2024-03-07T19:36:15.827Z,9.45
2024-03-07T19:38:47.625Z,9.25
2024-03-07T19:41:16.706Z,9.73
2024-03-07T19:43:45.162Z,9.63
2024-03-07T19:46:13.740Z,9.57
2024-03-07T19:48:42.285Z,10.13
2024-03-07T19:51:11.391Z,9.35
2024-03-07T19:53:40.811Z,10.48
2024-03-07T19:56:09.685Z,9.10
2024-03-07T19:58:39.459Z,9.80
2024-03-07T20:01:13.231Z,10.05
2024-03-07T20:06:10.827Z,9.75
2024-03-07T20:08:39.596Z,9.85
2024-03-07T20:11:08.518Z,8.88
2024-03-07T20:13:41.840Z,9.43
2024-03-07T20:18:41.344Z,9.88
2024-03-07T20:21:11.162Z,9.90
2024-03-07T20:23:41.809Z,9.68
2024-03-07T20:26:10.438Z,10.52
2024-03-07T20:28:38.787Z,10.02
2024-03-07T20:31:09.692Z,10.18
2024-03-07T20:33:38.745Z,10.30
2024-03-07T20:36:10.393Z,10.15
2024-03-07T20:38:39.656Z,9.35
2024-03-07T20:41:08.369Z,9.25
2024-03-07T20:43:37.529Z,10.13
2024-03-07T20:46:07.483Z,8.80
2024-03-07T20:48:37.253Z,10.35
2024-03-07T20:51:07.466Z,11.88
2024-03-07T20:53:35.944Z,9.77
2024-03-07T20:56:07.772Z,10.23
2024-03-07T20:58:36.871Z,10.45
2024-03-07T21:01:09.465Z,10.95
2024-03-07T21:03:42.901Z,9.88
2024-03-07T21:06:12.264Z,10.15
2024-03-07T21:08:41.381Z,10.68
2024-03-07T21:11:10.447Z,9.63
2024-03-07T21:13:40.489Z,11.25
2024-03-07T21:16:12.876Z,10.52
2024-03-07T21:18:41.664Z,9.60
2024-03-07T21:21:10.676Z,10.05
2024-03-07T21:23:41.857Z,10.65
2024-03-07T21:26:13.358Z,9.98
2024-03-07T21:28:42.324Z,10.38
2024-03-07T21:31:10.740Z,10.07
2024-03-07T21:33:40.926Z,9.30
2024-03-07T21:36:11.082Z,10.38
2024-03-07T21:38:40.172Z,9.10
2024-03-07T21:41:10.682Z,9.93
2024-03-07T21:43:38.847Z,10.43
2024-03-07T21:46:07.665Z,9.52
2024-03-07T21:48:36.024Z,9.43
2024-03-07T21:51:04.882Z,10.85
2024-03-07T21:53:33.032Z,10.65
2024-03-07T21:56:03.506Z,9.40
2024-03-07T21:58:31.628Z,10.02
2024-03-07T22:01:00.040Z,9.85
2024-03-07T22:03:28.115Z,11.27
2024-03-07T22:05:57.739Z,9.10
2024-03-07T22:08:28.262Z,9.52
2024-03-07T22:10:56.651Z,9.43
2024-03-07T22:13:24.914Z,9.95
2024-03-07T22:15:53.207Z,9.70
2024-03-07T22:18:22.562Z,9.98
2024-03-07T22:20:51.302Z,9.48
2024-03-07T22:23:19.452Z,10.30
2024-03-07T22:25:48.331Z,9.68
2024-03-07T22:28:16.498Z,10.10
2024-03-07T22:30:45.578Z,9.88
2024-03-07T22:33:13.714Z,10.38
2024-03-07T22:35:42.226Z,10.13
2024-03-07T22:38:10.575Z,9.15
2024-03-07T22:40:38.967Z,9.10
2024-03-07T22:43:07.192Z,9.43
2024-03-07T22:45:35.679Z,8.82
2024-03-07T22:48:04.061Z,9.05
2024-03-07T22:50:33.485Z,8.10
2024-03-07T22:53:03.097Z,7.68
2024-03-07T22:55:33.657Z,6.57
2024-03-07T22:58:01.773Z,6.70
2024-03-07T23:00:33.638Z,5.97
2024-03-07T23:03:06.168Z,5.80
2024-03-07T23:05:35.635Z,6.28
2024-03-07T23:08:03.905Z,5.53
2024-03-07T23:10:32.665Z,6.05
2024-03-07T23:13:01.990Z,5.18
2024-03-07T23:15:32.340Z,5.18
2024-03-07T23:18:02.396Z,5.55
2024-03-07T23:20:30.974Z,5.03
2024-03-07T23:23:00.349Z,4.03
2024-03-07T23:25:30.009Z,3.97
2024-03-07T23:28:01.166Z,4.03
2024-03-07T23:30:31.496Z,4.05
2024-03-07T23:33:00.176Z,3.85
2024-03-07T23:35:29.080Z,4.07
2024-03-07T23:37:58.519Z,5.80
2024-03-07T23:40:30.304Z,4.22
2024-03-07T23:42:59.164Z,5.07
2024-03-07T23:45:28.746Z,3.75
2024-03-07T23:47:59.243Z,4.30
2024-03-07T23:50:28.382Z,3.50
2024-03-07T23:52:56.659Z,3.50
2024-03-07T23:55:25.258Z,3.78
2024-03-07T23:57:53.477Z,3.88
